Relevés horaires Interlaken (Suisse)


Relevés horaires à Interlaken - Samedi 07 Juill. 2018
Heure UTC1 Température [°C] Vent [km/h] Hum. [%] Pres.4 [hPa] Visi. [Km] Nébu. [octa] Préc.5 [mm] Cond.
2m. Res. Ros. Dir.2 Vit. Moy. Raf.3
23:00 15.6 15.6 11.1 SO 5.6 -- -- 75 1021.7 -- -- -- --
22:00 16.5 16.5 11.6 S 3.7 -- -- 73 1021.4 -- -- -- --
21:00 17.4 17.4 12.1 SSO 11.1 -- 18.5 71 1021.2(1.0/3h) -- -- -- --
20:00 18.9 18.9 12.3 SSO 13.0 -- -- 66 1020.5 -- -- -- --
19:00 20.8 20.8 11.4 OSO 5.6 -- -- 55 1019.5 -- -- -- --
18:00 22.1 22.1 12.9 SO 3.7 -- 22.2 56 1019(-0.4/3h) -- -- 0/12h
--
17:00 24.7 24.7 11.3 N 5.6 -- -- 43 1018.4 -- -- -- --
16:00 24.7 24.7 11.3 E 5.6 -- -- 43 1018.6 -- -- -- --
15:00 24.1 24.1 11.8 N 7.4 -- 22.2 46 1019(-0.5/3h) -- -- -- --
14:00 25.2 25.2 12.2 N 7.4 -- -- 44 1018.7 -- -- -- --
13:00 24.6 24.6 12.5 N 5.6 -- -- 47 1019 -- -- -- --
12:00 23.4 23.4 13.1 N 5.6 -- 16.7 52 1019.7(-0.8/3h) -- -- 0/6h
--
11:00 22.2 22.2 13.4 NO 5.6 -- -- 57 1020.3 -- -- -- --
10:00 20.6 20.6 12.2 NO 11.1 -- -- 59 1021 -- -- -- --
09:00 19.0 19.0 13.7 E 3.7 -- 11.1 71 1021.6(-0.4/3h) -- -- -- --
08:00 17.1 17.1 13.4 NE 1.9 -- -- 79 1022.3 -- -- -- --
07:00 15.4 15.4 13.1 S 5.6 -- -- 86 1022.9 -- -- -- --
06:00 14.7 14.7 12.5 N 1.9 -- 18.5 87 1023.1(0.1/3h) -- -- 0/12h
8.7/24h
--
05:00 13.1 13.1 11.4 SO 3.7 -- -- 89 1023.6 -- -- -- --
04:00 12.5 12.1 11.1 SSO 7.4 -- -- 91 1023.6 -- -- -- --
03:00 13.4 13.1 11.8 SSO 7.4 -- 18.5 90 1023.3(-0.6/3h) -- -- -- --
02:00 13.7 13.7 12.2 SSO 5.6 -- -- 91 1023.3 -- -- -- --
01:00 13.7 13.5 12.6 SSO 7.4 -- -- 93 1023.6 -- -- -- --
00:00 14.0 13.8 12.8 SO 7.4 -- 14.8 92 1023.8(0.3/3h) -- -- 0/6h
--

1 Coordinated Universal Time. Actuellement il est 08:00 locale et 07:00 UTC.

2 Le vent souffle depuis la direction indiquée vers la direction oposée.

3 Les rafales max. sont disponible 40 min après l'heure du relevé.

4 Pour les stations d'altitude (plus de 600m) le géopotentiel du niveau le plus proche de la pression obligatoire est indiqué.

5 Les stations disposant d'un diffuseur peuvent indiquer "trace". Cela signifie que des précipitations ont touchés le sol mais que la quantité est inférieure à 0.1 mm.

Récapitulatif de la journée
Température [°C] Vent [km/h] Ensoleillement4 [h] Precipitations totale5 [mm] Pression [Hpa]
Min1 Max.2 Moy.3 Max. Min Max.
12.3 25.5 0 22.2 11 h 12 min 0 1018.4 1023.8

1 Température minimale relevée entre 18:00 UTC la veille et 18:00 UTC le jour donné.

2 Température maximale relevée entre 06:00 UTC le jour donné et 06:00 UTC le lendemain.

3 Vent moyen de la journée basé sur les relevés horaires.

4 Ensoleillement en heures relevé entre 06:00 UTC la veille et 06:00 UTC le jour donné.

5 Précipitations totales tombées entre 06:00 UTC la jour donné et 06:00 UTC le lendemain.

Graphiques horaires